Terminal Aerodrome Forecast
Issued by NWS Grand Forks, ND

Home | Current Version | Previous Version | Text Only | Print | Product List | Glossary Off
Versions: 1 2 3 4 5 6 7 8 9 10 11 12 13 14 15 16 17 18 19 20 21 22

000
FTUS43 KFGF 162029 AAC
TAFGFK
TAF AMD
KGFK 162029Z 1620/1718 VRB03KT P6SM BKN012
      TEMPO 1620/1622 SCT015
     FM162200 VRB03KT P6SM BKN015
     FM162300 VRB03KT P6SM BKN045
     FM170600 21006KT P6SM SCT200=

USA.gov is the U.S. government's official web portal to all federal, state and local government web resources and services.